Time;durP1;ratioP1;P1;durP2;ratioP2;P2;SDS_P1;SDS_P2;PMS_P1;PMS_P2;Temp;Humidity;BMP_temperature;BMP_pressure;BME280_temperature;BME280_humidity;BME280_pressure;Samples;Min_cycle;Max_cycle;Signal;HPM_P1;HPM_P2
2022/04/03 00:01:12;;;;;;;11.07;9.97;;;;;;;;;;5115026;28;20049;-59
2022/04/03 00:03:54;;;;;;;10.43;8.53;;;;;;;;;;5113932;28;20023;-58
2022/04/03 00:06:47;;;;;;;12.50;8.87;;;;;;;;;;5114028;28;20027;-59
2022/04/03 00:12:11;;;;;;;10.37;9.23;;;;;;;;;;5039665;28;20032;-58
2022/04/03 00:17:35;;;;;;;8.50;6.70;;;;;;;;;;5111558;28;20034;-58
2022/04/03 00:20:09;;;;;;;8.83;7.83;;;;;;;;;;5113317;28;20381;-59
2022/04/03 00:22:52;;;;;;;8.87;7.97;;;;;;;;;;5115065;28;20369;-59
2022/04/03 00:28:19;;;;;;;11.93;6.77;;;;;;;;;;5114869;28;20043;-59
2022/04/03 00:31:23;;;;;;;;;;;;;;;;;;;;;
2022/04/03 00:34:32;;;;;;;9.60;8.63;;;;;;;;;;5113939;28;20131;-57
2022/04/03 00:37:17;;;;;;;11.07;9.87;;;;;;;;;;5114744;28;20504;-59
2022/04/03 00:40:23;;;;;;;;;;;;;;;;;;;;;
2022/04/03 00:43:02;;;;;;;14.10;7.87;;;;;;;;;;5112411;28;20465;-59
2022/04/03 00:45:31;;;;;;;8.47;7.67;;;;;;;;;;5105984;28;20055;-59
2022/04/03 00:47:58;;;;;;;10.63;8.90;;;;;;;;;;5112904;28;20110;-58
2022/04/03 00:50:42;;;;;;;10.10;9.10;;;;;;;;;;5114706;28;20399;-59
2022/04/03 00:53:23;;;;;;;13.90;10.60;;;;;;;;;;5113620;28;20016;-59
2022/04/03 00:55:53;;;;;;;9.40;8.50;;;;;;;;;;5114505;28;20016;-59
2022/04/03 00:58:31;;;;;;;13.23;8.77;;;;;;;;;;5113935;28;20065;-59
2022/04/03 01:01:15;;;;;;;13.27;10.07;;;;;;;;;;5115612;28;20026;-58
2022/04/03 01:04:07;;;;;;;11.60;9.63;;;;;;;;;;5110059;28;20028;-59
2022/04/03 01:06:54;;;;;;;10.37;8.30;;;;;;;;;;5105580;28;20415;-58
2022/04/03 01:09:32;;;;;;;8.80;8.00;;;;;;;;;;5114942;28;20103;-58
2022/04/03 01:12:36;;;;;;;9.53;8.50;;;;;;;;;;5114835;28;20430;-59
2022/04/03 01:15:20;;;;;;;11.40;9.90;;;;;;;;;;5031940;28;20503;-59
2022/04/03 01:17:55;;;;;;;12.20;10.80;;;;;;;;;;5031623;28;20049;-58
2022/04/03 01:20:51;;;;;;;8.97;8.17;;;;;;;;;;5030635;28;20045;-59
2022/04/03 01:26:22;;;;;;;9.97;8.90;;;;;;;;;;5114217;28;20094;-58
2022/04/03 01:29:09;;;;;;;10.03;8.53;;;;;;;;;;5117585;28;20031;-59
2022/04/03 01:31:39;;;;;;;12.70;9.00;;;;;;;;;;5118571;28;20467;-59
2022/04/03 01:34:15;;;;;;;10.27;9.27;;;;;;;;;;5116059;28;20055;-59
2022/04/03 01:36:52;;;;;;;12.10;10.80;;;;;;;;;;5116657;28;20032;-59
2022/04/03 01:39:25;;;;;;;17.57;10.33;;;;;;;;;;5115560;28;20659;-58
2022/04/03 01:41:57;;;;;;;10.20;9.13;;;;;;;;;;5117467;28;20084;-60
2022/04/03 01:44:35;;;;;;;12.00;8.50;;;;;;;;;;5118439;28;20027;-59
2022/04/03 01:50:18;;;;;;;11.63;7.07;;;;;;;;;;5109563;28;20035;-59
2022/04/03 01:52:52;;;;;;;10.70;9.60;;;;;;;;;;5117271;28;20028;-59
2022/04/03 01:55:28;;;;;;;13.00;10.37;;;;;;;;;;5118530;28;20377;-58
2022/04/03 01:58:10;;;;;;;;;;;;;;;;;;;;;
2022/04/03 02:01:06;;;;;;;;;;;;;;;;;;;;;
2022/04/03 02:03:41;;;;;;;15.00;10.10;;;;;;;;;;5116298;28;20036;-59
2022/04/03 02:06:28;;;;;;;11.87;10.53;;;;;;;;;;5117514;28;20085;-58
2022/04/03 02:09:09;;;;;;;9.57;8.63;;;;;;;;;;5118189;28;20422;-58
2022/04/03 02:11:40;;;;;;;12.80;10.57;;;;;;;;;;5118105;28;20028;-57
2022/04/03 02:14:25;;;;;;;13.63;10.37;;;;;;;;;;5117275;28;20058;-59
2022/04/03 02:17:20;;;;;;;12.53;11.23;;;;;;;;;;5108655;28;20423;-58
2022/04/03 02:22:45;;;;;;;9.97;8.97;;;;;;;;;;5118170;28;20062;-59
2022/04/03 02:25:24;;;;;;;9.30;8.30;;;;;;;;;;5116919;28;20063;-59
2022/04/03 02:30:56;;;;;;;11.80;9.27;;;;;;;;;;5117338;28;20419;-59
2022/04/03 02:33:31;;;;;;;13.80;7.97;;;;;;;;;;5116994;28;20032;-59
2022/04/03 02:36:15;;;;;;;11.33;8.27;;;;;;;;;;5116960;28;20548;-59
2022/04/03 02:39:08;;;;;;;11.37;10.27;;;;;;;;;;5112231;28;20499;-59
2022/04/03 02:44:45;;;;;;;10.90;9.67;;;;;;;;;;5116469;28;20060;-59
2022/04/03 02:47:22;;;;;;;10.27;9.27;;;;;;;;;;5110023;28;20043;-59
2022/04/03 02:50:26;;;;;;;;;;;;;;;;;;;;;
2022/04/03 02:52:54;;;;;;;10.83;9.33;;;;;;;;;;5093111;28;20028;-59
2022/04/03 02:55:25;;;;;;;11.30;9.97;;;;;;;;;;5077337;28;20024;-59
2022/04/03 03:00:51;;;;;;;10.27;8.33;;;;;;;;;;5090578;28;19999;-57
2022/04/03 03:03:32;;;;;;;12.40;11.20;;;;;;;;;;5093393;28;20027;-59
2022/04/03 03:05:58;;;;;;;;;;;;;;;;;;5093255;28;20061;-59
2022/04/03 03:09:03;;;;;;;10.73;8.10;;;;;;;;;;5069826;28;19904;-59
2022/04/03 03:14:58;;;;;;;8.77;7.17;;;;;;;;;;5088628;28;20355;-59
2022/04/03 03:17:39;;;;;;;11.33;10.17;;;;;;;;;;5093635;28;20040;-59
2022/04/03 03:23:07;;;;;;;;;;;;;;;;;;;;;
2022/04/03 03:28:57;;;;;;;10.13;9.03;;;;;;;;;;5098064;28;20089;-56
2022/04/03 03:31:25;;;;;;;9.17;8.37;;;;;;;;;;5115260;28;20027;-57
2022/04/03 03:34:11;;;;;;;11.57;9.80;;;;;;;;;;5115061;28;20070;-56
2022/04/03 03:36:55;;;;;;;9.80;8.70;;;;;;;;;;5098156;28;20396;-57
2022/04/03 03:39:42;;;;;;;10.87;9.37;;;;;;;;;;5115471;28;20035;-57
2022/04/03 03:42:38;;;;;;;17.90;12.30;;;;;;;;;;5114910;28;20049;-55
2022/04/03 03:45:27;;;;;;;11.43;8.57;;;;;;;;;;5115792;28;20069;-56
2022/04/03 03:48:16;;;;;;;8.77;7.90;;;;;;;;;;5115708;28;20034;-56
2022/04/03 03:53:42;;;;;;;12.30;8.90;;;;;;;;;;5115221;28;20034;-57
2022/04/03 03:56:18;;;;;;;;;;;;;;;;;;;;;
2022/04/03 03:59:20;;;;;;;8.60;7.27;;;;;;;;;;5111128;28;19907;-56
2022/04/03 04:01:53;;;;;;;10.63;9.60;;;;;;;;;;5114351;28;20081;-57
2022/04/03 04:04:34;;;;;;;12.30;9.60;;;;;;;;;;5114810;28;20034;-57
2022/04/03 04:07:49;;;;;;;10.70;9.60;;;;;;;;;;5115221;28;20032;-57
2022/04/03 04:10:23;;;;;;;10.73;9.73;;;;;;;;;;5114239;28;20020;-56
2022/04/03 04:12:59;;;;;;;11.80;10.53;;;;;;;;;;5114400;28;20368;-56
2022/04/03 04:15:27;;;;;;;11.47;9.87;;;;;;;;;;5115052;28;20028;-56
2022/04/03 04:18:12;;;;;;;;;;;;;;;;;;;;;
2022/04/03 04:20:52;;;;;;;9.30;8.30;;;;;;;;;;5114319;28;20062;-56
2022/04/03 04:23:47;;;;;;;14.63;10.30;;;;;;;;;;5113626;28;20051;-55
2022/04/03 04:26:29;;;;;;;12.87;9.70;;;;;;;;;;5114465;28;20051;-57
2022/04/03 04:29:01;;;;;;;12.33;9.37;;;;;;;;;;5114925;28;20020;-57
2022/04/03 04:31:49;;;;;;;12.20;10.53;;;;;;;;;;5114877;28;20015;-57
2022/04/03 04:34:26;;;;;;;12.93;10.23;;;;;;;;;;5114083;28;20024;-57
2022/04/03 04:36:58;;;;;;;11.03;9.37;;;;;;;;;;5078122;28;20523;-57
2022/04/03 04:39:32;;;;;;;11.73;10.10;;;;;;;;;;5093929;28;20035;-57
2022/04/03 04:42:02;;;;;;;10.13;8.33;;;;;;;;;;5094162;28;20407;-57
2022/04/03 04:44:43;;;;;;;11.02;9.30;;;;;;;;;;5076049;28;20038;-57
2022/04/03 04:47:15;;;;;;;9.90;8.63;;;;;;;;;;5075367;28;20040;-57
2022/04/03 04:49:52;;;;;;;12.47;9.97;;;;;;;;;;5093933;28;20026;-56
2022/04/03 04:52:27;;;;;;;15.20;11.00;;;;;;;;;;5093486;28;20031;-57
2022/04/03 04:55:06;;;;;;;10.13;9.23;;;;;;;;;;5094263;28;20028;-57
2022/04/03 04:57:46;;;;;;;11.00;9.03;;;;;;;;;;5075156;28;20032;-57
2022/04/03 05:00:28;;;;;;;9.27;8.38;;;;;;;;;;5074589;28;20036;-57
2022/04/03 05:03:27;;;;;;;9.50;8.60;;;;;;;;;;5097571;28;20106;-57
2022/04/03 05:06:07;;;;;;;;;;;;;;;;;;;;;
2022/04/03 05:08:38;;;;;;;9.20;8.40;;;;;;;;;;5094842;28;20032;-56
2022/04/03 05:11:12;;;;;;;9.13;8.17;;;;;;;;;;5097072;28;20462;-57
2022/04/03 05:16:43;;;;;;;10.37;9.27;;;;;;;;;;5097319;28;20048;-56
2022/04/03 05:19:33;;;;;;;9.87;8.93;;;;;;;;;;5097272;28;20060;-57
2022/04/03 05:22:00;;;;;;;9.55;8.68;;;;;;;;;;5097389;28;20424;-57
2022/04/03 05:24:31;;;;;;;11.73;10.20;;;;;;;;;;5097317;28;20111;-57
2022/04/03 05:27:01;;;;;;;11.07;8.93;;;;;;;;;;5094568;28;20439;-57
2022/04/03 05:32:35;;;;;;;8.17;6.97;;;;;;;;;;5097725;28;20449;-56
2022/04/03 05:35:07;;;;;;;10.80;9.70;;;;;;;;;;5098425;28;20055;-57
2022/04/03 05:37:34;;;;;;;10.33;9.27;;;;;;;;;;5117439;28;20024;-57
2022/04/03 05:40:15;;;;;;;;;;;;;;;;;;;;;
2022/04/03 05:43:08;;;;;;;8.20;7.20;;;;;;;;;;5101722;28;20384;-57
2022/04/03 05:45:34;;;;;;;;;;;;;;;;;;5116955;28;20095;-57
2022/04/03 05:54:12;;;;;;;19.67;8.07;;;;;;;;;;5116350;28;20461;-56
2022/04/03 05:56:48;;;;;;;8.10;7.30;;;;;;;;;;5117786;28;20032;-57
2022/04/03 05:59:28;;;;;;;8.90;8.00;;;;;;;;;;5117410;28;20077;-56
2022/04/03 06:02:05;;;;;;;10.20;8.60;;;;;;;;;;5117137;28;20110;-57
2022/04/03 06:04:52;;;;;;;10.33;8.47;;;;;;;;;;5117003;28;20137;-57
2022/04/03 06:07:48;;;;;;;12.30;8.70;;;;;;;;;;5073626;28;20020;-57
2022/04/03 06:10:34;;;;;;;10.77;8.87;;;;;;;;;;5073237;28;20028;-56
2022/04/03 06:13:09;;;;;;;7.93;7.13;;;;;;;;;;5072675;28;20042;-57
2022/04/03 06:15:48;;;;;;;9.90;8.07;;;;;;;;;;5073845;28;20143;-56
2022/04/03 06:18:24;;;;;;;10.30;7.80;;;;;;;;;;5073761;28;20032;-57
2022/04/03 06:20:59;;;;;;;9.73;8.50;;;;;;;;;;5073894;28;20044;-57
2022/04/03 06:23:34;;;;;;;7.47;6.33;;;;;;;;;;5074114;28;20028;-57
2022/04/03 06:26:03;;;;;;;6.97;6.27;;;;;;;;;;5073423;28;20086;-57
2022/04/03 06:28:44;;;;;;;8.47;7.73;;;;;;;;;;5073662;28;20039;-56
2022/04/03 06:34:49;;;;;;;8.53;7.73;;;;;;;;;;5072985;28;20051;-57
2022/04/03 06:37:24;;;;;;;6.70;6.10;;;;;;;;;;5070927;28;20045;-57
2022/04/03 06:39:54;;;;;;;7.37;6.27;;;;;;;;;;5056381;28;20040;-57
2022/04/03 06:42:23;;;;;;;6.83;6.13;;;;;;;;;;5073165;28;20036;-57
2022/04/03 06:45:06;;;;;;;7.63;6.53;;;;;;;;;;5102202;28;20048;-56
2022/04/03 06:48:03;;;;;;;;;;;;;;;;;;;;;
2022/04/03 06:51:01;;;;;;;7.87;6.83;;;;;;;;;;5103495;27;20046;-57
2022/04/03 06:54:01;;;;;;;8.70;6.50;;;;;;;;;;5109937;27;20042;-57
2022/04/03 06:56:35;;;;;;;7.63;6.23;;;;;;;;;;5110556;28;20031;-57
2022/04/03 06:59:30;;;;;;;7.30;6.47;;;;;;;;;;5115536;28;20313;-57
2022/04/03 07:02:10;;;;;;;7.80;7.00;;;;;;;;;;5107965;28;20508;-57
2022/04/03 07:04:52;;;;;;;7.73;6.67;;;;;;;;;;5116051;28;20019;-55
2022/04/03 07:07:34;;;;;;;16.20;7.30;;;;;;;;;;5115730;28;20031;-57
2022/04/03 07:10:06;;;;;;;9.77;7.87;;;;;;;;;;5115921;28;20027;-56
2022/04/03 07:12:38;;;;;;;7.10;6.40;;;;;;;;;;5116330;28;20441;-57
2022/04/03 07:15:25;;;;;;;9.70;8.70;;;;;;;;;;5115641;28;20024;-57
2022/04/03 07:18:15;;;;;;;9.47;7.70;;;;;;;;;;5115645;28;20406;-56
2022/04/03 07:20:40;;;;;;;7.57;6.07;;;;;;;;;;5114766;28;20059;-57
2022/04/03 07:23:27;;;;;;;;;;;;;;;;;;;;;
2022/04/03 07:29:06;;;;;;;12.07;6.47;;;;;;;;;;5114010;28;20369;-57
2022/04/03 07:34:53;;;;;;;10.10;7.20;;;;;;;;;;5072230;28;20549;-57
2022/04/03 07:37:35;;;;;;;6.80;5.70;;;;;;;;;;5028653;28;20138;-57
2022/04/03 07:40:22;;;;;;;8.47;4.63;;;;;;;;;;5052338;28;20033;-57
2022/04/03 07:45:56;;;;;;;11.23;6.50;;;;;;;;;;4962023;28;20031;-57
2022/04/03 07:48:34;;;;;;;6.37;5.27;;;;;;;;;;5039607;28;20445;-58
2022/04/03 07:51:09;;;;;;;7.57;5.33;;;;;;;;;;5052008;28;20040;-57
2022/04/03 07:53:53;;;;;;;5.07;3.90;;;;;;;;;;5092551;28;20032;-57
2022/04/03 07:56:35;;;;;;;6.87;5.77;;;;;;;;;;5092742;28;20441;-56
2022/04/03 07:59:03;;;;;;;8.93;6.13;;;;;;;;;;5091754;28;20044;-57
2022/04/03 08:01:35;;;;;;;6.53;5.90;;;;;;;;;;5074488;28;20036;-57
2022/04/03 08:04:12;;;;;;;6.33;5.37;;;;;;;;;;5094836;28;20089;-57
2022/04/03 08:07:01;;;;;;;6.80;5.53;;;;;;;;;;5094437;28;20032;-57
2022/04/03 08:12:29;;;;;;;7.13;5.37;;;;;;;;;;5059437;28;20035;-57
2022/04/03 08:15:00;;;;;;;4.73;4.00;;;;;;;;;;5076418;28;20059;-57
2022/04/03 08:17:41;;;;;;;5.93;4.80;;;;;;;;;;5094117;28;20043;-55
2022/04/03 08:20:16;;;;;;;;;;;;;;;;;;5077015;28;20073;-57
2022/04/03 08:23:03;;;;;;;6.23;4.73;;;;;;;;;;5094522;28;20261;-56
2022/04/03 08:25:45;;;;;;;7.47;5.83;;;;;;;;;;5094627;28;20083;-57
2022/04/03 08:28:28;;;;;;;6.87;4.90;;;;;;;;;;5093992;28;20024;-58
2022/04/03 08:34:19;;;;;;;7.50;6.70;;;;;;;;;;5093785;28;20039;-57
2022/04/03 08:36:54;;;;;;;7.13;5.67;;;;;;;;;;5103865;28;20513;-57
2022/04/03 08:39:38;;;;;;;5.57;4.80;;;;;;;;;;5115078;28;20076;-56
2022/04/03 08:42:07;;;;;;;5.23;4.50;;;;;;;;;;5114819;28;20020;-57
2022/04/03 08:44:37;;;;;;;5.83;5.23;;;;;;;;;;5114865;28;20409;-57
2022/04/03 08:47:07;;;;;;;5.90;4.70;;;;;;;;;;5113910;28;20015;-57
2022/04/03 08:49:48;;;;;;;5.45;4.93;;;;;;;;;;5114164;28;20024;-56
2022/04/03 08:52:16;;;;;;;9.53;4.80;;;;;;;;;;5114570;28;20450;-57
2022/04/03 08:55:05;;;;;;;5.80;4.77;;;;;;;;;;5114286;28;20031;-57
2022/04/03 08:57:34;;;;;;;6.10;5.37;;;;;;;;;;5113945;28;20023;-58
2022/04/03 09:00:05;;;;;;;6.03;4.43;;;;;;;;;;5113610;28;20388;-58
2022/04/03 09:02:42;;;;;;;6.20;4.70;;;;;;;;;;5095700;28;20055;-58
2022/04/03 09:05:49;;;;;;;6.13;5.43;;;;;;;;;;5114244;28;20415;-58
2022/04/03 09:08:33;;;;;;;6.10;4.88;;;;;;;;;;5074220;28;20051;-56
2022/04/03 09:11:07;;;;;;;4.63;4.23;;;;;;;;;;5114736;28;20031;-58
2022/04/03 09:13:43;;;;;;;9.40;5.15;;;;;;;;;;5114191;28;20032;-58
2022/04/03 09:16:23;;;;;;;5.45;3.85;;;;;;;;;;5113723;28;20032;-58
2022/04/03 09:19:12;;;;;;;5.72;4.38;;;;;;;;;;5113743;28;20114;-56
2022/04/03 09:21:56;;;;;;;5.70;4.03;;;;;;;;;;5112082;28;20504;-57
2022/04/03 09:24:30;;;;;;;5.07;4.07;;;;;;;;;;5091624;28;20032;-58
2022/04/03 09:27:18;;;;;;;4.63;3.17;;;;;;;;;;5114564;28;20024;-56
2022/04/03 09:29:53;;;;;;;8.87;4.17;;;;;;;;;;5114929;28;20473;-56
2022/04/03 09:32:44;;;;;;;18.03;9.20;;;;;;;;;;5113077;28;20544;-58
2022/04/03 09:35:42;;;;;;;6.93;4.57;;;;;;;;;;5114022;28;20022;-56
2022/04/03 09:38:19;;;;;;;5.97;3.17;;;;;;;;;;5111297;28;20130;-56
2022/04/03 09:41:03;;;;;;;4.00;3.60;;;;;;;;;;5114455;28;20055;-57
2022/04/03 09:43:39;;;;;;;5.37;3.63;;;;;;;;;;5113833;28;20055;-57
2022/04/03 09:46:45;;;;;;;4.50;3.47;;;;;;;;;;5112230;28;20446;-58
2022/04/03 09:49:24;;;;;;;4.40;3.37;;;;;;;;;;5050360;28;20047;-56
2022/04/03 09:54:43;;;;;;;5.83;3.60;;;;;;;;;;5117776;28;20065;-56
2022/04/03 09:57:21;;;;;;;3.93;3.23;;;;;;;;;;5116071;28;20030;-57
2022/04/03 10:00:03;;;;;;;5.30;3.30;;;;;;;;;;5094713;28;20032;-58
2022/04/03 10:02:37;;;;;;;3.67;2.77;;;;;;;;;;5077608;28;20036;-58
2022/04/03 10:05:33;;;;;;;4.67;3.67;;;;;;;;;;5094716;28;20036;-58
2022/04/03 10:08:06;;;;;;;4.47;3.27;;;;;;;;;;5094529;28;20059;-58
2022/04/03 10:10:41;;;;;;;7.13;4.03;;;;;;;;;;5094407;28;20035;-58
2022/04/03 10:13:37;;;;;;;8.60;4.10;;;;;;;;;;5094159;28;20028;-58
2022/04/03 10:16:15;;;;;;;6.30;4.50;;;;;;;;;;5094281;28;20463;-58
2022/04/03 10:18:56;;;;;;;4.13;3.30;;;;;;;;;;5094540;28;20039;-58
2022/04/03 10:21:51;;;;;;;4.50;3.67;;;;;;;;;;5094306;28;20039;-58
2022/04/03 10:24:48;;;;;;;4.17;3.40;;;;;;;;;;5105004;28;20038;-57
2022/04/03 10:27:32;;;;;;;4.07;3.50;;;;;;;;;;5116260;28;20381;-57
2022/04/03 10:30:26;;;;;;;7.53;5.07;;;;;;;;;;5116088;28;20035;-58
2022/04/03 10:33:09;;;;;;;4.43;2.50;;;;;;;;;;5116458;28;20028;-57
2022/04/03 10:35:57;;;;;;;5.40;3.93;;;;;;;;;;5115975;28;20024;-57
2022/04/03 10:38:37;;;;;;;4.80;3.73;;;;;;;;;;5116114;28;20044;-57
2022/04/03 10:41:12;;;;;;;11.57;3.23;;;;;;;;;;5116965;28;20076;-58
2022/04/03 10:43:51;;;;;;;4.70;3.30;;;;;;;;;;5115998;28;20055;-58
2022/04/03 10:46:25;;;;;;;7.20;3.30;;;;;;;;;;5114659;28;20028;-57
2022/04/03 10:48:51;;;;;;;3.67;3.13;;;;;;;;;;5116034;28;20023;-57
2022/04/03 10:51:41;;;;;;;6.73;3.73;;;;;;;;;;5114724;28;20023;-57
2022/04/03 10:54:40;;;;;;;4.00;2.95;;;;;;;;;;5117097;28;20023;-58
2022/04/03 10:57:28;;;;;;;7.83;3.40;;;;;;;;;;5098347;28;20031;-57
2022/04/03 11:00:16;;;;;;;4.17;2.57;;;;;;;;;;5116917;28;20427;-57
2022/04/03 11:02:47;;;;;;;3.60;2.53;;;;;;;;;;5114405;28;20032;-57
2022/04/03 11:05:32;;;;;;;6.00;3.57;;;;;;;;;;5116681;28;20452;-58
2022/04/03 11:08:28;;;;;;;5.27;2.27;;;;;;;;;;5103184;28;20472;-57
2022/04/03 11:13:57;;;;;;;3.20;2.45;;;;;;;;;;5116111;28;20038;-58
2022/04/03 11:16:58;;;;;;;2.97;2.37;;;;;;;;;;5114782;28;20043;-57
2022/04/03 11:19:44;;;;;;;2.77;2.17;;;;;;;;;;5115395;28;20031;-57
2022/04/03 11:22:31;;;;;;;3.93;2.67;;;;;;;;;;5115477;28;20024;-57
2022/04/03 11:30:55;;;;;;;3.53;2.57;;;;;;;;;;5115738;28;20149;-58
2022/04/03 11:33:55;;;;;;;3.10;2.33;;;;;;;;;;5114660;28;20035;-58
2022/04/03 11:36:45;;;;;;;3.07;2.33;;;;;;;;;;5115515;28;20023;-58
2022/04/03 11:39:34;;;;;;;2.95;2.20;;;;;;;;;;5114856;28;20070;-58
2022/04/03 11:42:12;;;;;;;7.30;3.42;;;;;;;;;;5114477;28;20138;-58
2022/04/03 11:44:58;;;;;;;3.05;2.55;;;;;;;;;;5103019;28;20061;-57
2022/04/03 11:47:28;;;;;;;3.25;2.25;;;;;;;;;;5101200;28;20031;-56
2022/04/03 11:50:18;;;;;;;;;;;;;;;;;;;;;
2022/04/03 11:56:00;;;;;;;3.55;2.60;;;;;;;;;;5085381;28;20034;-57
2022/04/03 11:58:57;;;;;;;9.00;5.82;;;;;;;;;;5115641;28;20039;-58
2022/04/03 12:01:55;;;;;;;6.90;3.10;;;;;;;;;;5113970;28;20480;-58
2022/04/03 12:07:36;;;;;;;7.78;3.30;;;;;;;;;;5090993;28;20035;-58
2022/04/03 12:10:04;;;;;;;4.88;3.05;;;;;;;;;;5112959;28;20415;-57
2022/04/03 12:12:32;;;;;;;9.25;3.42;;;;;;;;;;5114627;28;20032;-58
2022/04/03 12:15:11;;;;;;;3.00;2.25;;;;;;;;;;5114502;28;20012;-58
2022/04/03 12:17:41;;;;;;;3.38;2.35;;;;;;;;;;5112568;28;20112;-57
2022/04/03 12:20:12;;;;;;;3.35;2.60;;;;;;;;;;5114519;28;20019;-59
2022/04/03 12:22:45;;;;;;;7.88;3.47;;;;;;;;;;5114400;28;20092;-57
2022/04/03 12:25:16;;;;;;;3.63;3.15;;;;;;;;;;5115399;28;20024;-58
2022/04/03 12:27:50;;;;;;;6.28;2.88;;;;;;;;;;5115211;28;20055;-58
2022/04/03 12:30:19;;;;;;;3.65;2.78;;;;;;;;;;5112135;28;20100;-58
2022/04/03 12:33:08;;;;;;;4.55;3.00;;;;;;;;;;5114139;28;20031;-59
2022/04/03 12:35:36;;;;;;;4.88;3.30;;;;;;;;;;5113928;28;20023;-57
2022/04/03 12:41:41;;;;;;;4.30;3.20;;;;;;;;;;5070734;28;20032;-59
2022/04/03 12:44:13;;;;;;;4.90;3.63;;;;;;;;;;5054602;28;20541;-59
2022/04/03 12:46:52;;;;;;;;;;;;;;;;;;;;;
2022/04/03 12:49:24;;;;;;;3.50;2.83;;;;;;;;;;5115053;28;20031;-59
2022/04/03 12:52:02;;;;;;;7.67;2.83;;;;;;;;;;5114533;28;20034;-58
2022/04/03 12:54:50;;;;;;;7.93;3.60;;;;;;;;;;5113675;28;20036;-58
2022/04/03 13:00:30;;;;;;;6.33;2.73;;;;;;;;;;5086220;28;20035;-59
2022/04/03 13:03:02;;;;;;;3.70;2.57;;;;;;;;;;5113974;28;20051;-58
2022/04/03 13:05:44;;;;;;;4.87;3.50;;;;;;;;;;5113026;28;20035;-59
2022/04/03 13:08:19;;;;;;;3.13;2.27;;;;;;;;;;5113900;28;20473;-58
2022/04/03 13:11:20;;;;;;;;;;;;;;;;;;;;;
2022/04/03 13:13:53;;;;;;;4.53;3.38;;;;;;;;;;5089054;28;20042;-59
2022/04/03 13:16:31;;;;;;;3.90;2.57;;;;;;;;;;5095522;28;20497;-59
2022/04/03 13:22:00;;;;;;;3.30;2.53;;;;;;;;;;5114950;28;20038;-59
2022/04/03 13:24:38;;;;;;;3.47;2.53;;;;;;;;;;5117716;28;20020;-59
2022/04/03 13:27:14;;;;;;;4.40;3.33;;;;;;;;;;5116565;28;20024;-58
2022/04/03 13:29:52;;;;;;;6.10;2.88;;;;;;;;;;5115618;28;20045;-58
2022/04/03 13:32:34;;;;;;;5.20;2.88;;;;;;;;;;5115827;28;20061;-58
2022/04/03 13:35:10;;;;;;;3.78;2.38;;;;;;;;;;5117388;28;20106;-58
2022/04/03 13:37:48;;;;;;;5.03;3.30;;;;;;;;;;5117424;28;20054;-58
2022/04/03 13:40:14;;;;;;;4.97;3.17;;;;;;;;;;5117003;28;20035;-59
2022/04/03 13:42:49;;;;;;;4.68;2.60;;;;;;;;;;5116264;28;20526;-58
2022/04/03 13:48:30;;;;;;;4.22;2.58;;;;;;;;;;5094999;28;20033;-59
2022/04/03 13:51:08;;;;;;;3.95;3.03;;;;;;;;;;5117398;28;20020;-55
2022/04/03 13:53:38;;;;;;;5.25;2.80;;;;;;;;;;5115856;28;20066;-58
2022/04/03 13:56:05;;;;;;;5.10;3.03;;;;;;;;;;5099124;28;20035;-58
2022/04/03 13:58:41;;;;;;;6.45;3.63;;;;;;;;;;5116241;28;20032;-59
2022/04/03 14:01:33;;;;;;;4.50;3.17;;;;;;;;;;5116959;28;20096;-58
2022/04/03 14:04:25;;;;;;;3.47;2.55;;;;;;;;;;5117460;28;20046;-58
2022/04/03 14:06:54;;;;;;;7.35;3.15;;;;;;;;;;5117894;28;20016;-57
2022/04/03 14:09:21;;;;;;;4.20;2.88;;;;;;;;;;5115895;28;20024;-58
2022/04/03 14:14:49;;;;;;;5.95;3.55;;;;;;;;;;5117805;28;20078;-58
2022/04/03 14:17:19;;;;;;;6.05;3.75;;;;;;;;;;5116845;28;20465;-58
2022/04/03 14:19:48;;;;;;;3.60;3.00;;;;;;;;;;5116340;28;20028;-58
2022/04/03 14:22:35;;;;;;;4.65;3.47;;;;;;;;;;5116258;28;20026;-58
2022/04/03 14:25:07;;;;;;;5.88;2.90;;;;;;;;;;5098212;28;20032;-59
2022/04/03 14:27:53;;;;;;;3.72;3.33;;;;;;;;;;5116669;28;20065;-58
2022/04/03 14:30:24;;;;;;;7.38;3.33;;;;;;;;;;5114788;28;20031;-57
2022/04/03 14:33:17;;;;;;;5.30;3.47;;;;;;;;;;5116222;28;20019;-59
2022/04/03 14:35:52;;;;;;;4.35;2.90;;;;;;;;;;5112851;28;20123;-59
2022/04/03 14:38:31;;;;;;;2.95;2.38;;;;;;;;;;5096745;28;20451;-59
2022/04/03 14:41:04;;;;;;;3.00;2.70;;;;;;;;;;5117302;28;20095;-59
2022/04/03 14:43:42;;;;;;;6.60;3.72;;;;;;;;;;5116986;28;20019;-60
2022/04/03 14:46:28;;;;;;;4.50;2.85;;;;;;;;;;5116994;28;20059;-59
2022/04/03 14:49:03;;;;;;;3.47;2.72;;;;;;;;;;5114359;28;20066;-59
2022/04/03 14:51:48;;;;;;;3.40;2.65;;;;;;;;;;5116355;28;20020;-60
2022/04/03 14:54:17;;;;;;;3.80;2.58;;;;;;;;;;5116006;28;20364;-59
2022/04/03 14:57:03;;;;;;;7.55;2.55;;;;;;;;;;5116264;28;20023;-58
2022/04/03 14:59:35;;;;;;;2.88;1.95;;;;;;;;;;5115900;28;20028;-59
2022/04/03 15:02:12;;;;;;;2.88;1.80;;;;;;;;;;5116072;28;20015;-57
2022/04/03 15:04:51;;;;;;;3.35;2.22;;;;;;;;;;5098016;28;20039;-59
2022/04/03 15:07:20;;;;;;;3.67;2.42;;;;;;;;;;5114636;28;20058;-59
2022/04/03 15:09:50;;;;;;;4.20;2.53;;;;;;;;;;5115400;28;20034;-59
2022/04/03 15:12:41;;;;;;;3.38;2.83;;;;;;;;;;5114713;28;20027;-59
2022/04/03 15:15:09;;;;;;;;;;;;;;;;;;5115250;28;20370;-57
2022/04/03 15:17:54;;;;;;;3.38;2.40;;;;;;;;;;5114761;28;19911;-58
2022/04/03 15:20:24;;;;;;;4.20;2.63;;;;;;;;;;5114420;28;20186;-58
2022/04/03 15:22:53;;;;;;;3.53;2.53;;;;;;;;;;5115649;28;20024;-58
2022/04/03 15:25:33;;;;;;;;;;;;;;;;;;;;;
2022/04/03 15:28:01;;;;;;;3.92;2.60;;;;;;;;;;5114144;28;20061;-58
2022/04/03 15:30:35;;;;;;;3.93;2.67;;;;;;;;;;5115119;28;20059;-58
2022/04/03 15:33:14;;;;;;;4.20;2.63;;;;;;;;;;5115212;28;20427;-56
2022/04/03 15:35:45;;;;;;;5.07;3.67;;;;;;;;;;5113595;28;20052;-58
2022/04/03 15:38:17;;;;;;;5.78;2.92;;;;;;;;;;5113231;28;20044;-58
2022/04/03 15:40:52;;;;;;;4.32;3.15;;;;;;;;;;5113617;28;20110;-56
2022/04/03 15:43:20;;;;;;;3.45;3.15;;;;;;;;;;5114001;28;20028;-59
2022/04/03 15:46:09;;;;;;;4.47;3.20;;;;;;;;;;5113948;28;20103;-58
2022/04/03 15:48:42;;;;;;;7.35;3.42;;;;;;;;;;5104084;28;20035;-59
2022/04/03 15:51:28;;;;;;;12.23;3.73;;;;;;;;;;5116043;28;20047;-57
2022/04/03 15:54:06;;;;;;;5.50;3.13;;;;;;;;;;5114989;27;20126;-58
2022/04/03 15:56:32;;;;;;;4.05;2.95;;;;;;;;;;5114671;28;20023;-59
2022/04/03 15:59:17;;;;;;;;;;;;;;;;;;;;;
2022/04/03 16:01:44;;;;;;;4.97;3.10;;;;;;;;;;5115460;28;20042;-59
2022/04/03 16:04:12;;;;;;;4.95;3.65;;;;;;;;;;5114527;28;20027;-59
2022/04/03 16:06:44;;;;;;;5.57;3.72;;;;;;;;;;5115075;28;20463;-58
2022/04/03 16:09:27;;;;;;;4.82;3.42;;;;;;;;;;5114618;28;20407;-58
2022/04/03 16:11:57;;;;;;;3.47;3.10;;;;;;;;;;5112908;28;20081;-58
2022/04/03 16:14:35;;;;;;;5.55;4.35;;;;;;;;;;5115006;28;20086;-59
2022/04/03 16:17:01;;;;;;;4.32;3.03;;;;;;;;;;5112971;28;20081;-59
2022/04/03 16:19:39;;;;;;;3.72;2.63;;;;;;;;;;5114401;28;20031;-59
2022/04/03 16:22:31;;;;;;;4.53;3.83;;;;;;;;;;5114687;28;20045;-57
2022/04/03 16:25:17;;;;;;;3.80;2.60;;;;;;;;;;5113354;28;20053;-58
2022/04/03 16:27:49;;;;;;;5.80;3.77;;;;;;;;;;5114770;28;20466;-58
2022/04/03 16:30:25;;;;;;;8.45;4.28;;;;;;;;;;5113335;28;20059;-58
2022/04/03 16:33:00;;;;;;;3.83;3.05;;;;;;;;;;5114628;28;20035;-58
2022/04/03 16:38:21;;;;;;;3.97;3.22;;;;;;;;;;5113968;28;20054;-58
2022/04/03 16:40:57;;;;;;;3.88;3.22;;;;;;;;;;5113456;28;20054;-58
2022/04/03 16:43:24;;;;;;;4.30;3.17;;;;;;;;;;5112850;28;20019;-58
2022/04/03 16:46:14;;;;;;;5.57;3.95;;;;;;;;;;5114944;28;20073;-58
2022/04/03 16:48:52;;;;;;;3.97;3.55;;;;;;;;;;5114052;28;20055;-59
2022/04/03 16:54:10;;;;;;;5.87;3.67;;;;;;;;;;5112854;28;20059;-58
2022/04/03 16:56:54;;;;;;;3.30;2.90;;;;;;;;;;5116169;28;20024;-59
2022/04/03 16:59:39;;;;;;;3.83;3.43;;;;;;;;;;5118996;28;20032;-59
2022/04/03 17:02:44;;;;;;;4.45;3.33;;;;;;;;;;5118193;28;20457;-57
2022/04/03 17:05:22;;;;;;;4.87;3.27;;;;;;;;;;5118357;28;20450;-58
2022/04/03 17:08:20;;;;;;;6.50;4.10;;;;;;;;;;5117862;28;20445;-59
2022/04/03 17:11:04;;;;;;;4.57;3.70;;;;;;;;;;5117996;28;20483;-57
2022/04/03 17:13:35;;;;;;;5.47;3.80;;;;;;;;;;5118158;28;20457;-58
2022/04/03 17:16:11;;;;;;;5.13;3.73;;;;;;;;;;5118009;28;20509;-57
2022/04/03 17:18:45;;;;;;;5.87;3.57;;;;;;;;;;5117393;28;20383;-58
2022/04/03 17:21:40;;;;;;;4.53;3.73;;;;;;;;;;5118571;28;20020;-58
2022/04/03 17:24:15;;;;;;;6.90;3.33;;;;;;;;;;5118107;28;20024;-54
2022/04/03 17:26:51;;;;;;;5.10;4.20;;;;;;;;;;5118696;28;20449;-57
2022/04/03 17:29:25;;;;;;;5.65;4.10;;;;;;;;;;5116751;28;20133;-57
2022/04/03 17:32:04;;;;;;;5.60;3.17;;;;;;;;;;5118426;27;20019;-58
2022/04/03 17:34:41;;;;;;;3.40;3.03;;;;;;;;;;5118079;28;20020;-57
2022/04/03 17:37:25;;;;;;;6.40;5.13;;;;;;;;;;5115837;28;20051;-58
2022/04/03 17:39:54;;;;;;;4.47;3.60;;;;;;;;;;5116161;28;20031;-57
2022/04/03 17:42:29;;;;;;;5.30;4.38;;;;;;;;;;5117228;28;20043;-58
2022/04/03 17:45:10;;;;;;;4.53;3.83;;;;;;;;;;5117383;28;20484;-55
2022/04/03 17:47:43;;;;;;;4.35;3.95;;;;;;;;;;5116122;28;20024;-57
2022/04/03 17:50:20;;;;;;;6.43;3.95;;;;;;;;;;5114892;28;20023;-58
2022/04/03 17:53:02;;;;;;;;;;;;;;;;;;;;;
2022/04/03 17:55:32;;;;;;;4.67;3.63;;;;;;;;;;5117070;28;20031;-55
2022/04/03 17:58:05;;;;;;;5.75;3.30;;;;;;;;;;5117533;28;20426;-57
2022/04/03 18:00:43;;;;;;;5.30;4.77;;;;;;;;;;5116467;28;20369;-56